createdAt,value
2018-07-12T00:00:58.697Z,16.30
2018-07-12T00:01:58.684Z,16.50
2018-07-12T00:02:58.806Z,16.30
2018-07-12T00:03:59.022Z,18.10
2018-07-12T00:04:59.055Z,16.80
2018-07-12T00:05:59.148Z,16.80
2018-07-12T00:06:59.249Z,18.80
2018-07-12T00:07:59.336Z,18.20
2018-07-12T00:08:59.434Z,19.10
2018-07-12T00:09:59.518Z,17.90
2018-07-12T00:10:59.634Z,19.50
2018-07-12T00:11:59.723Z,18.00
2018-07-12T00:12:59.828Z,16.90
2018-07-12T00:13:59.946Z,18.20
2018-07-12T00:15:00.078Z,17.30
2018-07-12T00:16:00.188Z,17.00
2018-07-12T00:17:00.333Z,16.30
2018-07-12T00:18:00.387Z,17.50
2018-07-12T00:19:00.494Z,15.80
2018-07-12T00:20:00.617Z,16.20
2018-07-12T00:21:00.719Z,17.10
2018-07-12T00:22:00.836Z,17.70
2018-07-12T00:23:00.935Z,17.50
2018-07-12T00:24:01.036Z,15.90
2018-07-12T00:25:01.195Z,16.70
2018-07-12T00:26:01.176Z,16.00
2018-07-12T00:27:01.264Z,15.90
2018-07-12T00:28:01.368Z,16.10
2018-07-12T00:29:01.462Z,15.90
2018-07-12T00:30:01.566Z,16.30
2018-07-12T00:31:01.683Z,16.80
2018-07-12T00:32:01.772Z,16.00
2018-07-12T00:33:01.857Z,15.90
2018-07-12T00:34:01.942Z,15.80
2018-07-12T00:35:02.083Z,15.90
2018-07-12T00:36:02.181Z,15.80
2018-07-12T00:37:02.277Z,17.40
2018-07-12T00:38:02.379Z,16.50
2018-07-12T00:39:02.476Z,16.80
2018-07-12T00:40:02.576Z,15.90
2018-07-12T00:41:02.661Z,17.30
2018-07-12T00:42:02.764Z,16.70
2018-07-12T00:43:02.899Z,18.00
2018-07-12T00:44:02.993Z,17.80
2018-07-12T00:45:03.111Z,17.20
2018-07-12T00:46:03.197Z,18.30
2018-07-12T00:47:03.325Z,18.20
2018-07-12T00:48:03.427Z,17.20
2018-07-12T00:49:03.505Z,17.90
2018-07-12T00:50:03.601Z,17.80
2018-07-12T00:51:03.710Z,18.30
2018-07-12T00:52:03.811Z,17.30
2018-07-12T00:53:03.898Z,16.60
2018-07-12T00:54:03.988Z,17.30
2018-07-12T00:55:04.080Z,17.50
2018-07-12T00:56:04.191Z,18.50
2018-07-12T00:57:04.294Z,18.20
2018-07-12T00:58:04.402Z,18.00
2018-07-12T00:59:04.525Z,18.20
2018-07-12T01:00:04.623Z,17.90
2018-07-12T01:01:04.728Z,17.60
2018-07-12T01:02:04.821Z,17.00
2018-07-12T01:03:04.930Z,17.70
2018-07-12T01:04:05.028Z,18.20
2018-07-12T01:05:05.128Z,18.70
2018-07-12T01:06:05.231Z,17.90
2018-07-12T01:07:05.327Z,17.20
2018-07-12T01:08:05.432Z,17.70
2018-07-12T01:09:05.518Z,17.50
2018-07-12T01:10:05.609Z,17.40
2018-07-12T01:11:05.720Z,18.00
2018-07-12T01:12:05.815Z,18.10
2018-07-12T01:13:05.932Z,19.20
2018-07-12T01:14:06.059Z,18.20
2018-07-12T01:15:06.151Z,18.30
2018-07-12T01:16:06.242Z,19.90
2018-07-12T01:17:06.349Z,18.90
2018-07-12T01:18:06.457Z,18.70
2018-07-12T01:19:06.548Z,18.40
2018-07-12T01:20:06.646Z,18.70
2018-07-12T01:21:06.727Z,19.10
2018-07-12T01:22:06.821Z,19.00
2018-07-12T01:23:06.922Z,18.70
2018-07-12T01:24:07.005Z,18.60
2018-07-12T01:25:07.132Z,18.50
2018-07-12T01:26:07.217Z,21.80
2018-07-12T01:27:07.315Z,19.30
2018-07-12T01:28:07.436Z,17.90
2018-07-12T01:29:07.566Z,19.20
2018-07-12T01:30:07.653Z,19.60
2018-07-12T01:31:07.769Z,18.70
2018-07-12T01:32:07.907Z,19.50
2018-07-12T01:33:08.008Z,20.00
2018-07-12T01:34:08.166Z,19.70
2018-07-12T01:35:08.265Z,20.20
2018-07-12T01:36:08.396Z,18.20
2018-07-12T01:37:08.450Z,19.20
2018-07-12T01:38:08.548Z,19.60
2018-07-12T01:39:08.645Z,18.30
2018-07-12T01:40:08.737Z,19.50
2018-07-12T01:41:08.871Z,19.20
2018-07-12T01:42:08.994Z,19.50
2018-07-12T01:43:09.000Z,19.00
2018-07-12T01:44:09.093Z,19.00
2018-07-12T01:45:09.194Z,19.90
2018-07-12T01:46:09.285Z,19.20
2018-07-12T01:47:09.373Z,19.00
2018-07-12T01:48:09.462Z,18.70
2018-07-12T01:49:09.582Z,20.70
2018-07-12T01:50:09.687Z,19.50
2018-07-12T01:51:09.777Z,19.00
2018-07-12T01:52:09.876Z,19.90
2018-07-12T01:53:09.977Z,19.50
2018-07-12T01:54:10.080Z,20.30
2018-07-12T01:55:10.172Z,19.60
2018-07-12T01:56:10.264Z,18.60
2018-07-12T01:57:10.366Z,22.50
2018-07-12T01:58:10.455Z,24.10
2018-07-12T01:59:10.568Z,19.30
2018-07-12T02:00:10.665Z,20.00
2018-07-12T02:01:10.773Z,18.70
2018-07-12T02:02:10.864Z,18.30
2018-07-12T02:03:10.963Z,21.10
2018-07-12T02:04:11.069Z,20.00
2018-07-12T02:05:11.169Z,19.30
2018-07-12T02:06:11.266Z,20.40
2018-07-12T02:07:11.360Z,19.80
2018-07-12T02:08:11.462Z,19.60
2018-07-12T02:09:11.546Z,21.70
2018-07-12T02:10:11.643Z,20.50
2018-07-12T02:11:11.737Z,19.20
2018-07-12T02:12:11.834Z,19.40
2018-07-12T02:13:11.927Z,21.00
2018-07-12T02:14:12.029Z,19.30
2018-07-12T02:15:12.125Z,19.10
2018-07-12T02:16:12.222Z,20.20
2018-07-12T02:17:12.331Z,19.10
2018-07-12T02:18:12.426Z,18.80
2018-07-12T02:19:12.522Z,19.40
2018-07-12T02:20:12.613Z,18.60
2018-07-12T02:21:12.709Z,18.30
2018-07-12T02:22:12.804Z,18.00
2018-07-12T02:23:12.902Z,18.00
2018-07-12T02:24:13.026Z,19.70
2018-07-12T02:25:13.122Z,19.20
2018-07-12T02:26:13.217Z,18.20
2018-07-12T02:27:13.313Z,18.10
2018-07-12T02:28:13.412Z,18.70
2018-07-12T02:29:13.523Z,19.50
2018-07-12T02:30:13.609Z,19.10
2018-07-12T02:31:13.719Z,17.60
2018-07-12T02:32:13.818Z,18.90
2018-07-12T02:33:13.917Z,18.60
2018-07-12T02:34:14.020Z,18.60
2018-07-12T02:35:14.228Z,18.00
2018-07-12T02:36:14.221Z,19.00
2018-07-12T02:37:14.320Z,18.30
2018-07-12T02:38:14.431Z,18.60
2018-07-12T02:39:14.530Z,17.90
2018-07-12T02:40:14.628Z,18.00
2018-07-12T02:41:14.725Z,18.40
2018-07-12T02:42:14.824Z,17.90
2018-07-12T02:43:14.922Z,21.10
2018-07-12T02:44:15.021Z,17.70
2018-07-12T02:45:15.118Z,18.90
2018-07-12T02:46:15.219Z,20.90
2018-07-12T02:47:15.317Z,18.40
2018-07-12T02:48:15.417Z,18.10
2018-07-12T02:49:15.513Z,18.50
2018-07-12T02:50:15.609Z,17.60
2018-07-12T02:51:15.720Z,18.00
2018-07-12T02:52:15.807Z,17.20
2018-07-12T02:53:15.903Z,18.20
2018-07-12T02:54:16.002Z,18.00
2018-07-12T02:55:16.162Z,18.20
2018-07-12T02:56:16.202Z,18.10
2018-07-12T02:57:16.301Z,17.70
2018-07-12T02:58:16.397Z,17.10
2018-07-12T02:59:16.494Z,18.50
2018-07-12T03:00:16.590Z,18.80
2018-07-12T03:01:16.689Z,17.90
2018-07-12T03:02:16.789Z,18.30
2018-07-12T03:03:16.884Z,19.10
2018-07-12T03:04:16.986Z,15.90
2018-07-12T03:05:17.085Z,16.90
2018-07-12T03:06:17.179Z,16.80
2018-07-12T03:07:17.278Z,17.50
2018-07-12T03:08:17.374Z,16.90
2018-07-12T03:09:17.477Z,17.20
2018-07-12T03:10:17.573Z,16.70
2018-07-12T03:11:17.669Z,17.10
2018-07-12T03:12:17.769Z,17.00
2018-07-12T03:13:17.862Z,16.70
2018-07-12T03:14:17.955Z,16.90
2018-07-12T03:15:18.051Z,17.00
2018-07-12T03:16:18.150Z,16.10
2018-07-12T03:17:18.247Z,16.60
2018-07-12T03:18:18.342Z,17.10
2018-07-12T03:19:18.432Z,16.60
2018-07-12T03:20:18.543Z,16.80
2018-07-12T03:21:18.651Z,17.20
2018-07-12T03:22:18.749Z,17.10
2018-07-12T03:23:18.850Z,16.30
2018-07-12T03:24:18.951Z,16.40
2018-07-12T03:25:19.047Z,16.10
2018-07-12T03:26:19.145Z,16.00
2018-07-12T03:27:19.241Z,16.40
2018-07-12T03:28:19.338Z,16.70
2018-07-12T03:29:19.437Z,17.00
2018-07-12T03:30:19.536Z,17.00
2018-07-12T03:31:19.632Z,16.40
2018-07-12T03:32:19.731Z,16.30
2018-07-12T03:33:19.834Z,16.50
2018-07-12T03:34:19.932Z,16.60
2018-07-12T03:35:20.033Z,15.80
2018-07-12T03:36:20.131Z,15.90
2018-07-12T03:37:20.231Z,17.00
2018-07-12T03:38:20.327Z,15.70
2018-07-12T03:39:20.454Z,16.00
2018-07-12T03:40:20.618Z,15.10
2018-07-12T03:41:20.658Z,14.20
2018-07-12T03:42:20.748Z,15.20
2018-07-12T03:43:20.846Z,14.20
2018-07-12T03:44:20.944Z,17.10
2018-07-12T03:45:21.043Z,14.50
2018-07-12T03:46:21.152Z,14.50
2018-07-12T03:47:21.249Z,14.60
2018-07-12T03:48:21.344Z,15.50
2018-07-12T03:49:21.447Z,15.30
2018-07-12T03:50:21.543Z,15.20
2018-07-12T03:51:21.643Z,14.90
2018-07-12T03:52:21.742Z,15.30
2018-07-12T03:53:21.863Z,15.20
2018-07-12T03:54:21.966Z,17.20
2018-07-12T03:55:22.063Z,16.10
2018-07-12T03:56:22.162Z,15.50
2018-07-12T03:57:22.260Z,14.50
2018-07-12T03:58:22.357Z,14.10
2018-07-12T03:59:22.457Z,14.90
2018-07-12T04:00:22.577Z,14.80
2018-07-12T04:01:22.673Z,14.80
2018-07-12T04:02:22.773Z,15.00
2018-07-12T04:03:22.875Z,14.30
2018-07-12T04:04:22.971Z,15.10
2018-07-12T04:05:23.072Z,15.40
2018-07-12T04:06:23.165Z,14.40
2018-07-12T04:07:23.301Z,15.80
2018-07-12T04:08:23.389Z,16.10
2018-07-12T04:09:23.474Z,14.40
2018-07-12T04:10:23.571Z,14.50
2018-07-12T04:11:23.666Z,14.90
2018-07-12T04:12:23.784Z,14.20
2018-07-12T04:13:23.931Z,21.90
2018-07-12T04:14:24.003Z,19.10
2018-07-12T04:15:24.109Z,26.30
2018-07-12T04:16:24.236Z,14.40
2018-07-12T04:17:24.422Z,16.20
2018-07-12T04:18:24.380Z,15.90
2018-07-12T04:19:24.476Z,15.70
2018-07-12T04:20:24.568Z,16.00
2018-07-12T04:21:24.698Z,15.10
2018-07-12T04:22:24.921Z,15.90
2018-07-12T04:23:24.873Z,16.00
2018-07-12T04:24:24.967Z,15.80
2018-07-12T04:25:25.067Z,15.60
2018-07-12T04:26:25.164Z,15.50
2018-07-12T04:27:25.277Z,14.60
2018-07-12T04:28:25.301Z,15.00
2018-07-12T04:29:25.429Z,14.70
2018-07-12T04:30:25.517Z,14.50
2018-07-12T04:31:25.604Z,13.30
2018-07-12T04:32:25.709Z,16.20
2018-07-12T04:33:25.805Z,13.80
2018-07-12T04:34:25.997Z,15.00
2018-07-12T04:35:25.974Z,14.80
2018-07-12T04:36:26.076Z,16.10
2018-07-12T04:37:26.169Z,14.90
2018-07-12T04:38:26.253Z,14.30
2018-07-12T04:39:26.361Z,13.90
2018-07-12T04:40:26.562Z,13.80
2018-07-12T04:41:26.533Z,14.40
2018-07-12T04:42:26.664Z,13.30
2018-07-12T04:43:26.780Z,13.70
2018-07-12T04:44:27.011Z,14.70
2018-07-12T04:45:27.079Z,13.20
2018-07-12T04:46:27.063Z,15.50
2018-07-12T04:47:27.162Z,14.10
2018-07-12T04:48:27.304Z,13.20
2018-07-12T04:49:27.353Z,13.90
2018-07-12T04:50:27.392Z,13.20
2018-07-12T04:51:27.540Z,14.80
2018-07-12T04:52:27.672Z,15.10
2018-07-12T04:53:27.688Z,14.20
2018-07-12T04:54:27.772Z,14.60
2018-07-12T04:55:27.867Z,14.10
2018-07-12T04:56:27.999Z,14.70
2018-07-12T04:57:28.084Z,14.80
2018-07-12T04:58:28.255Z,17.20
2018-07-12T04:59:28.248Z,15.50
2018-07-12T05:00:28.372Z,15.10
2018-07-12T05:01:28.464Z,14.70
2018-07-12T05:02:28.589Z,15.00
2018-07-12T05:03:28.679Z,14.80
2018-07-12T05:04:28.787Z,15.50
2018-07-12T05:05:28.873Z,14.70
2018-07-12T05:06:28.967Z,14.30
2018-07-12T05:07:29.096Z,16.20
2018-07-12T05:08:29.196Z,15.80
2018-07-12T05:09:29.297Z,15.50
2018-07-12T05:10:29.386Z,15.70
2018-07-12T05:11:29.491Z,14.80
2018-07-12T05:12:29.583Z,14.60
2018-07-12T05:13:29.689Z,15.70
2018-07-12T05:14:29.779Z,15.90
2018-07-12T05:15:29.905Z,16.00
2018-07-12T05:16:30.010Z,16.40
2018-07-12T05:17:30.119Z,15.90
2018-07-12T05:18:30.243Z,15.80
2018-07-12T05:19:30.325Z,16.20
2018-07-12T05:20:30.417Z,16.20
2018-07-12T05:21:30.512Z,16.40
2018-07-12T05:22:31.438Z,16.00
2018-07-12T05:23:30.664Z,17.30
2018-07-12T05:24:30.775Z,15.90
2018-07-12T05:25:30.883Z,16.10
2018-07-12T05:26:30.978Z,15.90
2018-07-12T05:27:31.090Z,16.90
2018-07-12T05:28:31.218Z,16.30
2018-07-12T05:29:31.317Z,16.00
2018-07-12T05:30:31.427Z,15.70
2018-07-12T05:31:31.544Z,14.70
2018-07-12T05:32:31.634Z,14.70
2018-07-12T05:33:31.732Z,14.90
2018-07-12T05:34:31.824Z,14.60
2018-07-12T05:35:31.934Z,15.20
2018-07-12T05:36:32.037Z,14.40
2018-07-12T05:37:32.140Z,15.80
2018-07-12T05:38:32.245Z,15.20
2018-07-12T05:39:32.347Z,14.50
2018-07-12T05:40:32.443Z,16.80
2018-07-12T05:41:32.531Z,15.90
2018-07-12T05:42:32.673Z,15.00
2018-07-12T05:43:32.790Z,15.50
2018-07-12T05:44:32.880Z,15.10
2018-07-12T05:45:32.971Z,16.80
2018-07-12T05:46:33.076Z,15.50
2018-07-12T05:47:33.177Z,15.40
2018-07-12T05:48:33.273Z,15.60
2018-07-12T05:49:33.358Z,14.90
2018-07-12T05:50:33.458Z,14.20
2018-07-12T05:51:33.562Z,14.90
2018-07-12T05:52:33.684Z,14.30
2018-07-12T05:53:33.823Z,15.20
2018-07-12T05:54:33.928Z,15.20
2018-07-12T05:55:34.025Z,15.20
2018-07-12T05:56:34.110Z,14.50
2018-07-12T05:57:34.278Z,14.90
2018-07-12T05:58:34.313Z,15.50
2018-07-12T05:59:34.407Z,15.00
2018-07-12T06:00:34.509Z,15.50
2018-07-12T06:01:34.598Z,15.50
2018-07-12T06:02:34.713Z,15.10
2018-07-12T06:03:34.817Z,14.80
2018-07-12T06:04:34.919Z,14.40
2018-07-12T06:05:35.020Z,15.80
2018-07-12T06:06:35.117Z,15.00
2018-07-12T06:07:35.211Z,14.70
2018-07-12T06:08:35.327Z,14.90
2018-07-12T06:09:35.442Z,14.40
2018-07-12T06:10:35.535Z,14.70
2018-07-12T06:11:35.626Z,15.20
2018-07-12T06:12:35.733Z,14.80
2018-07-12T06:13:35.838Z,14.50
2018-07-12T06:14:35.937Z,14.30
2018-07-12T06:15:36.028Z,14.60
2018-07-12T06:16:36.132Z,13.30
2018-07-12T06:17:36.239Z,13.90
2018-07-12T06:18:36.330Z,14.20
2018-07-12T06:19:36.414Z,13.40
2018-07-12T06:20:36.505Z,13.90
2018-07-12T06:21:36.639Z,14.00
2018-07-12T06:22:36.731Z,13.80
2018-07-12T06:23:36.826Z,13.10
2018-07-12T06:24:36.987Z,12.90
2018-07-12T06:25:37.030Z,13.10
2018-07-12T06:26:37.117Z,13.40
2018-07-12T06:27:37.227Z,16.00
2018-07-12T06:28:37.319Z,12.70
2018-07-12T06:29:37.420Z,12.70
2018-07-12T06:30:37.518Z,13.00
2018-07-12T06:31:37.621Z,11.60
2018-07-12T06:32:37.715Z,12.60
2018-07-12T06:33:37.840Z,11.50
2018-07-12T06:34:37.918Z,12.40
2018-07-12T06:35:38.007Z,11.30
2018-07-12T06:36:38.133Z,11.90
2018-07-12T06:37:38.233Z,13.30
2018-07-12T06:38:38.333Z,11.90
2018-07-12T06:39:38.431Z,11.20
2018-07-12T06:40:38.529Z,11.00
2018-07-12T06:41:38.621Z,11.30
2018-07-12T06:42:38.748Z,10.60
2018-07-12T06:43:38.820Z,10.30
2018-07-12T06:44:38.917Z,9.80
2018-07-12T06:45:39.023Z,9.60
2018-07-12T06:46:39.124Z,9.50
2018-07-12T06:47:39.224Z,8.50
2018-07-12T06:48:39.341Z,9.30
2018-07-12T06:49:39.454Z,9.00
2018-07-12T06:50:39.541Z,8.50
2018-07-12T06:51:39.693Z,8.00
2018-07-12T06:52:39.789Z,8.40
2018-07-12T06:53:39.888Z,8.10
2018-07-12T06:54:39.991Z,7.80
2018-07-12T06:55:40.118Z,8.30
2018-07-12T06:56:40.203Z,8.60
2018-07-12T06:57:40.301Z,7.60
2018-07-12T06:58:40.402Z,7.30
2018-07-12T06:59:40.520Z,8.10
2018-07-12T07:00:40.660Z,9.40
2018-07-12T07:01:40.677Z,8.20
2018-07-12T07:02:40.759Z,7.60
2018-07-12T07:03:40.864Z,7.40
2018-07-12T07:04:40.956Z,7.30
2018-07-12T07:05:41.055Z,7.40
2018-07-12T07:06:41.181Z,7.80
2018-07-12T07:07:41.294Z,7.30
2018-07-12T07:08:41.397Z,7.30
2018-07-12T07:09:41.493Z,7.10
2018-07-12T07:10:41.604Z,6.60
2018-07-12T07:11:41.723Z,6.00
2018-07-12T07:12:41.819Z,6.30
2018-07-12T07:13:41.923Z,6.00
2018-07-12T07:14:42.032Z,6.10
2018-07-12T07:15:42.126Z,5.80
2018-07-12T07:16:42.244Z,5.80
2018-07-12T07:17:42.344Z,5.50
2018-07-12T07:18:42.447Z,6.00
2018-07-12T07:19:42.547Z,5.90
2018-07-12T07:20:42.650Z,5.40
2018-07-12T07:21:42.751Z,5.60
2018-07-12T07:22:42.856Z,5.60
2018-07-12T07:23:42.957Z,5.10
2018-07-12T07:24:43.056Z,5.00
2018-07-12T07:25:43.208Z,4.70
2018-07-12T07:26:43.267Z,6.10
2018-07-12T07:27:43.369Z,6.90
2018-07-12T07:28:43.474Z,7.80
2018-07-12T07:29:43.575Z,7.50
2018-07-12T07:30:43.677Z,6.80
2018-07-12T07:31:43.779Z,7.20
2018-07-12T07:32:43.885Z,6.90
2018-07-12T07:33:43.985Z,7.30
2018-07-12T07:34:44.083Z,7.00
2018-07-12T07:35:44.210Z,6.40
2018-07-12T07:36:44.305Z,5.60
2018-07-12T07:37:44.407Z,5.40
2018-07-12T07:38:44.506Z,5.30
2018-07-12T07:39:44.604Z,4.70
2018-07-12T07:40:44.707Z,5.10
2018-07-12T07:41:44.810Z,4.90
2018-07-12T07:42:44.912Z,4.80
2018-07-12T07:43:45.012Z,4.50
2018-07-12T07:44:45.116Z,5.20
2018-07-12T07:45:45.213Z,4.40
2018-07-12T07:46:45.316Z,3.90
2018-07-12T07:47:45.417Z,4.10
2018-07-12T07:48:45.518Z,4.30
2018-07-12T07:49:45.621Z,4.50
2018-07-12T07:50:45.725Z,4.80
2018-07-12T07:51:45.823Z,4.70
2018-07-12T07:52:45.922Z,4.30
2018-07-12T07:53:46.023Z,4.00
2018-07-12T07:54:46.126Z,4.10
2018-07-12T07:55:46.227Z,4.10
2018-07-12T07:56:46.329Z,4.50
2018-07-12T07:57:46.433Z,4.60
2018-07-12T07:58:46.535Z,4.30
2018-07-12T07:59:46.629Z,3.70
2018-07-12T08:00:46.736Z,3.80
2018-07-12T08:01:46.840Z,4.10
2018-07-12T08:02:46.940Z,4.20
2018-07-12T08:03:47.045Z,4.20
2018-07-12T08:04:47.173Z,4.90
2018-07-12T08:05:47.278Z,4.40
2018-07-12T08:06:47.377Z,4.20
2018-07-12T08:07:47.480Z,3.90
2018-07-12T08:08:47.579Z,4.30
2018-07-12T08:09:47.706Z,4.90
2018-07-12T08:10:47.810Z,4.00
2018-07-12T08:11:47.914Z,3.90
2018-07-12T08:12:48.017Z,4.20
2018-07-12T08:13:48.139Z,3.70
2018-07-12T08:14:48.242Z,3.80
2018-07-12T08:15:48.344Z,3.50
2018-07-12T08:16:48.448Z,3.70
2018-07-12T08:17:48.548Z,4.20
2018-07-12T08:18:48.652Z,3.60
2018-07-12T08:19:48.774Z,3.60
2018-07-12T08:20:48.873Z,3.50
2018-07-12T08:21:48.966Z,3.50
2018-07-12T08:22:49.157Z,4.70
2018-07-12T08:23:49.181Z,3.50
2018-07-12T08:24:49.282Z,3.60
2018-07-12T08:25:49.379Z,3.20
2018-07-12T08:26:49.478Z,3.40
2018-07-12T08:27:49.580Z,4.10
2018-07-12T08:28:49.695Z,3.20
2018-07-12T08:29:49.837Z,3.10
2018-07-12T08:30:49.890Z,3.70
2018-07-12T08:31:49.988Z,3.50
2018-07-12T08:32:50.089Z,3.40
2018-07-12T08:33:50.233Z,3.40
2018-07-12T08:34:50.327Z,3.30
2018-07-12T08:35:50.431Z,3.10
2018-07-12T08:36:50.538Z,3.50
2018-07-12T08:37:50.627Z,3.40
2018-07-12T08:38:50.727Z,3.40
2018-07-12T08:39:50.907Z,3.40
2018-07-12T08:40:50.877Z,3.50
2018-07-12T08:41:51.005Z,3.70
2018-07-12T08:42:51.193Z,3.50
2018-07-12T08:43:51.206Z,4.20
2018-07-12T08:44:51.349Z,3.40
2018-07-12T08:45:51.451Z,3.10
2018-07-12T08:46:51.553Z,3.70
2018-07-12T08:47:51.664Z,3.40
2018-07-12T08:48:51.765Z,3.50
2018-07-12T08:49:51.898Z,3.20
2018-07-12T08:50:52.000Z,3.60
2018-07-12T08:51:52.104Z,3.70
2018-07-12T08:52:52.200Z,3.30
2018-07-12T08:53:52.324Z,3.20
2018-07-12T08:54:52.428Z,3.70
2018-07-12T08:55:52.530Z,3.50
2018-07-12T08:56:52.632Z,3.40
2018-07-12T08:57:52.728Z,3.30
2018-07-12T08:58:52.839Z,3.40
2018-07-12T08:59:52.944Z,3.60
2018-07-12T09:00:53.047Z,4.00
2018-07-12T09:01:53.176Z,3.80
2018-07-12T09:02:53.401Z,3.60
2018-07-12T09:03:53.375Z,3.80
2018-07-12T09:04:54.139Z,3.80
2018-07-12T09:05:53.859Z,5.20
2018-07-12T09:06:53.819Z,4.20
2018-07-12T09:07:53.851Z,3.80
2018-07-12T09:08:53.954Z,4.20
2018-07-12T09:09:54.091Z,4.30
2018-07-12T09:10:54.117Z,3.70
2018-07-12T09:11:54.284Z,3.60
2018-07-12T09:12:54.381Z,4.30
2018-07-12T09:13:54.487Z,3.90
2018-07-12T09:14:54.611Z,3.90
2018-07-12T09:15:54.712Z,3.60
2018-07-12T09:16:54.854Z,4.50
2018-07-12T09:17:54.920Z,4.30
2018-07-12T09:18:55.031Z,5.10
2018-07-12T09:19:55.187Z,4.40
2018-07-12T09:20:55.363Z,4.50
2018-07-12T09:21:55.331Z,4.40
2018-07-12T09:22:55.536Z,3.90
2018-07-12T09:23:55.506Z,3.70
2018-07-12T09:24:55.696Z,3.70
2018-07-12T09:25:55.682Z,3.70
2018-07-12T09:26:56.271Z,3.50
2018-07-12T09:27:55.824Z,3.60
2018-07-12T09:28:55.999Z,3.30
2018-07-12T09:29:56.078Z,3.30
2018-07-12T09:30:56.253Z,3.40
2018-07-12T09:31:56.160Z,3.00
2018-07-12T09:32:56.262Z,3.90
2018-07-12T09:33:56.429Z,3.20
2018-07-12T09:34:56.641Z,2.90
2018-07-12T09:35:56.692Z,3.20
2018-07-12T09:36:56.859Z,3.70
2018-07-12T09:37:56.754Z,4.60
2018-07-12T09:38:56.892Z,3.60
2018-07-12T09:39:57.160Z,3.70
2018-07-12T09:40:57.214Z,3.40
2018-07-12T09:41:57.190Z,3.30
2018-07-12T09:42:57.366Z,3.40
2018-07-12T09:43:57.462Z,3.30
2018-07-12T09:44:57.565Z,3.00
2018-07-12T09:45:57.701Z,3.30
2018-07-12T09:46:57.801Z,3.70
2018-07-12T09:47:57.909Z,3.40
2018-07-12T09:48:58.149Z,4.50
2018-07-12T09:49:58.089Z,4.40
2018-07-12T09:50:58.225Z,5.20
2018-07-12T09:51:58.285Z,4.70
2018-07-12T09:52:58.377Z,4.70
2018-07-12T09:53:58.487Z,4.70
2018-07-12T09:54:58.706Z,4.60
2018-07-12T09:55:58.793Z,5.50
2018-07-12T09:56:58.828Z,4.60
2018-07-12T09:57:58.952Z,4.50
2018-07-12T09:58:59.076Z,5.20
2018-07-12T09:59:59.257Z,4.30
2018-07-12T10:00:59.414Z,4.50
2018-07-12T10:01:59.381Z,4.50
2018-07-12T10:02:59.552Z,4.50
2018-07-12T10:03:59.528Z,4.10
2018-07-12T10:04:59.633Z,5.30
2018-07-12T10:05:59.770Z,4.50
2018-07-12T10:06:59.889Z,4.20
2018-07-12T10:07:59.988Z,5.00
2018-07-12T10:09:00.177Z,4.60
2018-07-12T10:10:00.211Z,4.30
2018-07-12T10:11:00.312Z,4.90
2018-07-12T10:12:00.411Z,4.60
2018-07-12T10:13:00.508Z,4.30
2018-07-12T10:14:00.618Z,4.80
2018-07-12T10:15:00.739Z,4.60
2018-07-12T10:16:00.842Z,4.50
2018-07-12T10:17:00.938Z,4.70
2018-07-12T10:18:01.040Z,4.90
2018-07-12T10:19:01.136Z,4.50
2018-07-12T10:20:01.382Z,5.00
2018-07-12T10:21:01.285Z,4.30
2018-07-12T10:22:01.380Z,5.80
2018-07-12T10:23:01.469Z,4.20
2018-07-12T10:24:01.626Z,4.40
2018-07-12T10:25:01.743Z,4.00
2018-07-12T10:26:01.832Z,4.40
2018-07-12T10:27:01.932Z,4.00
2018-07-12T10:28:02.046Z,3.80
2018-07-12T10:29:02.153Z,4.70
2018-07-12T10:30:02.255Z,3.50
2018-07-12T10:31:02.382Z,4.00
2018-07-12T10:32:02.485Z,5.60
2018-07-12T10:33:02.592Z,4.50
2018-07-12T10:34:02.688Z,3.80
2018-07-12T10:35:02.803Z,4.70
2018-07-12T10:36:02.911Z,3.60
2018-07-12T10:37:03.068Z,3.60
2018-07-12T10:38:03.179Z,3.50
2018-07-12T10:39:03.283Z,3.60
2018-07-12T10:40:03.392Z,3.40
2018-07-12T10:41:03.503Z,4.50
2018-07-12T10:42:03.614Z,3.80
2018-07-12T10:43:03.739Z,5.20
2018-07-12T10:44:03.832Z,4.20
2018-07-12T10:45:03.936Z,4.50
2018-07-12T10:46:04.054Z,4.10
2018-07-12T10:47:04.087Z,4.50
2018-07-12T10:48:04.191Z,4.50
2018-07-12T10:49:04.298Z,3.80
2018-07-12T10:50:04.393Z,3.90
2018-07-12T10:51:04.505Z,4.00
2018-07-12T10:52:04.600Z,3.20
2018-07-12T10:53:04.706Z,3.40
2018-07-12T10:54:04.814Z,3.30
2018-07-12T10:55:04.911Z,3.50
2018-07-12T10:56:05.023Z,3.40
2018-07-12T10:57:05.127Z,4.00
2018-07-12T10:58:05.230Z,3.40
2018-07-12T10:59:05.333Z,3.70
2018-07-12T11:00:05.429Z,4.90
2018-07-12T11:01:05.550Z,4.40
2018-07-12T11:02:05.696Z,3.50
2018-07-12T11:03:05.821Z,3.50
2018-07-12T11:04:05.940Z,4.20
2018-07-12T11:05:06.040Z,3.80
2018-07-12T11:06:06.175Z,3.60
2018-07-12T11:07:06.251Z,3.60
2018-07-12T11:08:06.350Z,4.70
2018-07-12T11:09:06.496Z,3.20
2018-07-12T11:10:06.546Z,3.10
2018-07-12T11:11:06.651Z,3.10
2018-07-12T11:12:06.757Z,3.90
2018-07-12T11:13:06.865Z,3.20
2018-07-12T11:14:06.966Z,3.30
2018-07-12T11:15:07.068Z,3.40
2018-07-12T11:16:07.176Z,3.60
2018-07-12T11:17:07.292Z,3.70
2018-07-12T11:18:07.397Z,4.40
2018-07-12T11:19:07.498Z,3.20
2018-07-12T11:20:07.598Z,3.70
2018-07-12T11:21:07.756Z,3.30
2018-07-12T11:22:07.812Z,3.00
2018-07-12T11:23:07.932Z,3.00
2018-07-12T11:24:08.025Z,2.90
2018-07-12T11:25:08.134Z,2.80
2018-07-12T11:26:08.235Z,2.80
2018-07-12T11:27:08.342Z,2.90
2018-07-12T11:28:08.454Z,3.00
2018-07-12T11:29:08.571Z,2.90
2018-07-12T11:30:08.691Z,2.90
2018-07-12T11:31:08.794Z,3.00
2018-07-12T11:32:08.906Z,2.90
2018-07-12T11:33:09.015Z,4.10
2018-07-12T11:34:09.117Z,3.10
2018-07-12T11:35:09.227Z,3.10
2018-07-12T11:36:09.338Z,3.00
2018-07-12T11:37:09.513Z,2.90
2018-07-12T11:38:09.545Z,3.60
2018-07-12T11:39:09.650Z,4.40
2018-07-12T11:40:09.758Z,3.10
2018-07-12T11:41:09.933Z,3.50
2018-07-12T11:42:09.911Z,6.00
2018-07-12T11:43:10.017Z,2.90
2018-07-12T11:44:10.115Z,2.80
2018-07-12T11:45:10.219Z,3.00
2018-07-12T11:46:10.324Z,2.80
2018-07-12T11:47:10.427Z,3.10
2018-07-12T11:48:10.534Z,2.70
2018-07-12T11:49:10.641Z,4.20
2018-07-12T11:50:10.740Z,2.90
2018-07-12T11:51:10.903Z,3.00
2018-07-12T11:52:11.004Z,3.10
2018-07-12T11:53:11.125Z,2.90
2018-07-12T11:54:11.231Z,2.90
2018-07-12T11:55:11.341Z,3.00
2018-07-12T11:56:11.443Z,3.30
2018-07-12T11:57:11.550Z,3.10
2018-07-12T11:58:11.654Z,2.80
2018-07-12T11:59:11.748Z,4.00
2018-07-12T12:00:11.868Z,3.50
2018-07-12T12:01:11.972Z,3.40
2018-07-12T12:02:12.071Z,3.40
2018-07-12T12:03:12.175Z,3.20
2018-07-12T12:04:12.280Z,3.50
2018-07-12T12:05:12.385Z,3.60
2018-07-12T12:06:12.489Z,3.70
2018-07-12T12:07:12.592Z,3.10
2018-07-12T12:08:12.699Z,4.70
2018-07-12T12:09:12.805Z,3.10
2018-07-12T12:10:12.909Z,3.20
2018-07-12T12:11:13.013Z,3.30
2018-07-12T12:12:13.119Z,3.30
2018-07-12T12:13:13.234Z,3.10
2018-07-12T12:14:13.341Z,3.70
2018-07-12T12:15:13.445Z,3.40
2018-07-12T12:16:13.551Z,3.60
2018-07-12T12:17:13.653Z,3.40
2018-07-12T12:18:13.760Z,3.30
2018-07-12T12:19:13.866Z,4.80
2018-07-12T12:20:13.972Z,4.00
2018-07-12T12:21:14.073Z,3.00
2018-07-12T12:22:14.175Z,3.20
2018-07-12T12:23:14.283Z,3.50
2018-07-12T12:24:14.386Z,3.50
2018-07-12T12:25:14.493Z,4.10
2018-07-12T12:26:14.599Z,3.30
2018-07-12T12:27:14.704Z,3.50
2018-07-12T12:28:14.813Z,3.70
2018-07-12T12:29:14.910Z,4.00
2018-07-12T12:30:15.020Z,3.50
2018-07-12T12:31:15.125Z,3.30
2018-07-12T12:32:15.231Z,4.00
2018-07-12T12:33:15.330Z,3.80
2018-07-12T12:34:15.431Z,5.70
2018-07-12T12:35:15.541Z,3.60
2018-07-12T12:36:15.644Z,3.50
2018-07-12T12:37:15.747Z,3.90
2018-07-12T12:38:15.852Z,3.60
2018-07-12T12:39:15.956Z,3.50
2018-07-12T12:40:16.061Z,3.60
2018-07-12T12:41:16.166Z,3.60
2018-07-12T12:42:16.294Z,4.10
2018-07-12T12:43:16.394Z,4.00
2018-07-12T12:44:16.506Z,4.00
2018-07-12T12:45:16.606Z,3.80
2018-07-12T12:46:16.713Z,3.50
2018-07-12T12:47:16.819Z,4.60
2018-07-12T12:48:16.925Z,5.20
2018-07-12T12:49:17.029Z,4.80
2018-07-12T12:50:17.134Z,5.00
2018-07-12T12:51:17.237Z,5.30
2018-07-12T12:52:17.380Z,4.00
2018-07-12T12:53:17.481Z,5.70
2018-07-12T12:54:17.589Z,4.00
2018-07-12T12:55:17.687Z,3.30
2018-07-12T12:56:17.794Z,5.10
2018-07-12T12:57:17.901Z,3.80
2018-07-12T12:58:18.014Z,4.30
2018-07-12T12:59:18.117Z,4.90
2018-07-12T13:00:18.224Z,5.10
2018-07-12T13:01:18.329Z,3.80
2018-07-12T13:02:18.436Z,4.90
2018-07-12T13:03:18.579Z,5.70
2018-07-12T13:04:18.648Z,4.20
2018-07-12T13:05:18.750Z,4.50
2018-07-12T13:06:18.854Z,3.90
2018-07-12T13:07:18.959Z,3.80